Pierceton, IN

1:38 AM EDT on July 22, 2017 (GMT -0400)
Larwill North | | Change Station
Active Advisory: Flood Watch Active Notice: Flood Watch

Elev 951 ft 41.19 °N, 85.63 °W | Updated 26 seconds ago

Thunderstorm
Thunderstorm
71.5 °F
Feels Like 71.5 °F
N
5.0
Wind Variable Wind from ENE

Today
High -- | Low -- °F
--% Chance of Precip.
Yesterday
High -- | Low -- °F
Precip. -- in
Pressure 29.97 in
Visibility 4.0 miles
Clouds Scattered Clouds 2700 ft
Mostly Cloudy 3600 ft
Overcast 7000 ft
Dew Point 71 °F
Humidity 98%
Rainfall 0.43 in
Snow Depth Not available.
6:29 AM 9:08 PM
Waning Crescent, 2% visible
METAR KASW 220515Z AUTO 25006KT 4SM +RA SCT027 BKN036 OVC070 23/22 A2997 RMK AO2 P0003
Pressure 29.97 in
Visibility 4.0 miles
Clouds Scattered Clouds 2700 ft
Mostly Cloudy 3600 ft
Overcast 7000 ft
Dew Point 71 °F
Humidity 98%
Rainfall 0.43 in
Snow Depth Not available.
6:29 AM 9:08 PM
Waning Crescent, 2% visible
METAR KASW 220515Z AUTO 25006KT 4SM +RA SCT027 BKN036 OVC070 23/22 A2997 RMK AO2 P0003

Get Your Daily Forecast Email!

Thanks for signing up!

Be on the lookout for a verification email in your inbox.

You'll start receiving severe weather alerts in your inbox..

×

10-Day Weather Forecast

Almanac

Astronomy

Jul. 22, 2017 Rise Set
Actual Time
Civil Twilight
Nautical Twilight
Astronomical Twilight
Moon
Length of Visible Light
Length of Day
Tomorrow will be .
, % of the Moon is Illuminated

Today's Extremes

State Highs State Lows

Community

WunderPhotos

Category 6

Welcome to Category 6. This is the collective home for Weather Underground's featured writeups by Dr. Jeff Masters (right), Bob Henson (left), Chris Burt, and other regular contributors.

Nearby

Air Quality

  Air Quality AQ Index Pollutant
Not available.

Snow Depth

Station Depth Elevation

Earthquake Activity

City Distance Mag. Time & Date
Minimum magnitude displayed is 2.5.

Coastal Water Temperatures

Place Temperature

Stations

Nearby Weather Stations

Station Location Temp. Windchill Dew Point Humidity Wind Precip. Elev Updated Type
                   

Watches & Warnings

Flood Watch
Issued: 9:42 PM EDT Jul. 21, 2017 – National Weather Service

The National Weather Service in northern Indiana has issued a
* Flood Watch for
the Eel River at North Manchester.
* From Saturday afternoon until Monday morning.
* At 8 PM Friday the stage was 3.5 feet and steady.
* Flooding is possible.
* Flood stage is 9.0 feet.
* Forecast... if current precipitation forecasts hold... the river may
rise to near 10.5 feet very early Sunday morning.



Lat... Lon 4076 8635 4097 8592 4102 8577 4099 8577
      4087 8599 4072 8631